createdAt,value
2022-07-30T00:00:53.913Z,19.30
2022-07-30T00:01:56.271Z,19.30
2022-07-30T00:02:59.614Z,19.30
2022-07-30T00:04:02.091Z,19.30
2022-07-30T00:05:06.404Z,19.30
2022-07-30T00:06:11.826Z,19.30
2022-07-30T00:07:15.923Z,19.20
2022-07-30T00:08:18.293Z,19.20
2022-07-30T00:09:21.668Z,19.20
2022-07-30T00:10:25.817Z,19.20
2022-07-30T00:11:29.112Z,19.20
2022-07-30T00:12:31.891Z,19.20
2022-07-30T00:13:35.362Z,19.20
2022-07-30T00:14:39.023Z,19.20
2022-07-30T00:15:42.611Z,19.10
2022-07-30T00:16:45.895Z,19.10
2022-07-30T00:17:49.492Z,19.10
2022-07-30T00:18:52.001Z,19.10
2022-07-30T00:19:56.183Z,19.10
2022-07-30T00:20:58.780Z,19.10
2022-07-30T00:22:02.518Z,19.10
2022-07-30T00:23:05.234Z,19.10
2022-07-30T00:24:09.513Z,19.10
2022-07-30T00:25:12.275Z,19.10
2022-07-30T00:26:16.949Z,19.10
2022-07-30T00:27:19.494Z,19.10
2022-07-30T00:28:22.903Z,19.10
2022-07-30T00:29:26.554Z,19.00
2022-07-30T00:30:31.956Z,19.00
2022-07-30T00:31:34.459Z,19.00
2022-07-30T00:32:37.988Z,19.00
2022-07-30T00:33:40.337Z,18.90
2022-07-30T00:34:43.767Z,19.00
2022-07-30T00:35:46.411Z,19.00
2022-07-30T00:36:50.621Z,19.00
2022-07-30T00:37:53.963Z,19.00
2022-07-30T00:38:57.918Z,18.90
2022-07-30T00:40:00.328Z,18.90
2022-07-30T00:41:03.730Z,18.90
2022-07-30T00:42:07.628Z,18.90
2022-07-30T00:43:16.400Z,18.80
2022-07-30T00:44:20.398Z,18.80
2022-07-30T00:45:24.129Z,18.80
2022-07-30T00:46:31.352Z,18.80
2022-07-30T00:47:37.891Z,18.80
2022-07-30T00:48:40.576Z,18.80
2022-07-30T00:49:44.450Z,18.70
2022-07-30T00:50:46.987Z,18.70
2022-07-30T00:51:52.425Z,18.70
2022-07-30T00:52:54.826Z,18.60
2022-07-30T00:54:01.119Z,18.60
2022-07-30T00:55:04.199Z,18.60
2022-07-30T00:56:07.957Z,18.60
2022-07-30T00:57:11.825Z,18.60
2022-07-30T00:58:15.237Z,18.60
2022-07-30T00:59:17.836Z,18.60
2022-07-30T01:00:21.609Z,18.60
2022-07-30T01:01:24.377Z,18.60
2022-07-30T01:02:28.029Z,18.60
2022-07-30T01:03:30.503Z,18.70
2022-07-30T01:04:34.113Z,18.60
2022-07-30T01:05:36.694Z,18.60
2022-07-30T01:06:40.432Z,18.60
2022-07-30T01:07:43.439Z,18.60
2022-07-30T01:08:46.877Z,18.60
2022-07-30T01:09:49.233Z,18.60
2022-07-30T01:10:52.729Z,18.60
2022-07-30T01:11:56.616Z,18.60
2022-07-30T01:13:02.084Z,18.60
2022-07-30T01:14:06.086Z,18.60
2022-07-30T01:15:11.739Z,18.50
2022-07-30T01:16:15.761Z,18.50
2022-07-30T01:17:19.425Z,18.50
2022-07-30T01:18:24.216Z,18.40
2022-07-30T01:19:48.873Z,18.50
2022-07-30T01:21:01.872Z,18.40
2022-07-30T01:22:12.512Z,18.40
2022-07-30T01:23:26.329Z,18.40
2022-07-30T01:24:36.375Z,18.40
2022-07-30T01:25:54.439Z,18.40
2022-07-30T01:26:59.072Z,18.30
2022-07-30T01:28:07.341Z,18.30
2022-07-30T01:29:10.837Z,18.30
2022-07-30T01:30:18.618Z,18.30
2022-07-30T01:31:23.218Z,18.30
2022-07-30T01:32:30.830Z,18.30
2022-07-30T01:33:37.550Z,18.30
2022-07-30T01:34:42.191Z,18.30
2022-07-30T01:35:48.723Z,18.30
2022-07-30T01:36:52.508Z,18.30
2022-07-30T01:37:57.691Z,18.20
2022-07-30T01:39:02.018Z,18.20
2022-07-30T01:40:07.838Z,18.20
2022-07-30T01:41:13.363Z,18.20
2022-07-30T01:42:18.033Z,18.20
2022-07-30T01:43:23.754Z,18.20
2022-07-30T01:44:29.186Z,18.20
2022-07-30T01:45:35.803Z,18.10
2022-07-30T01:46:47.391Z,18.10
2022-07-30T01:47:53.202Z,18.10
2022-07-30T01:48:59.024Z,18.10
2022-07-30T01:50:11.018Z,18.10
2022-07-30T01:51:17.284Z,18.00
2022-07-30T01:52:27.079Z,18.00
2022-07-30T01:53:32.918Z,18.00
2022-07-30T01:54:38.469Z,18.00
2022-07-30T01:55:42.358Z,18.00
2022-07-30T01:56:48.883Z,18.00
2022-07-30T01:57:52.092Z,18.00
2022-07-30T01:58:58.591Z,18.00
2022-07-30T02:00:07.429Z,18.00
2022-07-30T02:01:26.104Z,18.00
2022-07-30T02:02:35.303Z,18.00
2022-07-30T02:03:38.674Z,18.00
2022-07-30T02:04:42.129Z,18.00
2022-07-30T02:05:53.468Z,18.00
2022-07-30T02:07:04.510Z,17.90
2022-07-30T02:08:16.833Z,17.90
2022-07-30T02:09:31.733Z,17.90
2022-07-30T02:10:42.470Z,17.90
2022-07-30T02:12:11.198Z,17.80
2022-07-30T02:13:23.046Z,17.80
2022-07-30T02:14:30.890Z,17.80
2022-07-30T02:15:42.589Z,17.80
2022-07-30T02:16:50.414Z,17.80
2022-07-30T02:18:01.469Z,17.80
2022-07-30T02:19:09.743Z,17.80
2022-07-30T02:20:18.594Z,17.70
2022-07-30T02:21:22.044Z,17.80
2022-07-30T02:22:29.462Z,17.80
2022-07-30T02:23:39.257Z,17.80
2022-07-30T02:24:43.993Z,17.80
2022-07-30T02:25:50.675Z,17.80
2022-07-30T02:27:04.334Z,17.80
2022-07-30T02:28:13.104Z,17.80
2022-07-30T02:29:18.650Z,17.70
2022-07-30T02:30:27.770Z,17.70
2022-07-30T02:31:32.822Z,17.70
2022-07-30T02:32:43.501Z,17.70
2022-07-30T02:33:51.033Z,17.70
2022-07-30T02:35:00.216Z,17.70
2022-07-30T02:36:05.853Z,17.70
2022-07-30T02:37:16.588Z,17.70
2022-07-30T02:38:24.307Z,17.70
2022-07-30T02:39:30.210Z,17.70
2022-07-30T02:40:34.575Z,17.70
2022-07-30T02:41:40.373Z,17.70
2022-07-30T02:42:48.837Z,17.60
2022-07-30T02:44:01.397Z,17.70
2022-07-30T02:45:07.369Z,17.70
2022-07-30T02:46:13.368Z,17.60
2022-07-30T02:47:36.982Z,17.60
2022-07-30T02:48:41.368Z,17.60
2022-07-30T02:49:52.094Z,17.60
2022-07-30T02:51:00.902Z,17.60
2022-07-30T02:52:04.992Z,17.60
2022-07-30T02:53:13.089Z,17.60
2022-07-30T02:54:20.143Z,17.60
2022-07-30T02:55:26.174Z,17.60
2022-07-30T02:56:29.442Z,17.50
2022-07-30T02:57:34.630Z,17.50
2022-07-30T02:58:40.223Z,17.50
2022-07-30T02:59:45.042Z,17.50
2022-07-30T03:00:50.457Z,17.50
2022-07-30T03:01:55.583Z,17.40
2022-07-30T03:02:58.986Z,17.40
2022-07-30T03:04:07.423Z,17.40
2022-07-30T03:05:11.526Z,17.30
2022-07-30T03:06:16.300Z,17.30
2022-07-30T03:07:20.083Z,17.30
2022-07-30T03:08:24.106Z,17.30
2022-07-30T03:09:28.614Z,17.30
2022-07-30T03:10:55.124Z,17.30
2022-07-30T03:12:01.838Z,17.30
2022-07-30T03:13:08.156Z,17.30
2022-07-30T03:14:12.448Z,17.30
2022-07-30T03:15:16.872Z,17.30
2022-07-30T03:16:22.466Z,17.30
2022-07-30T03:17:29.778Z,17.30
2022-07-30T03:18:36.746Z,17.30
2022-07-30T03:19:41.430Z,17.30
2022-07-30T03:20:47.762Z,17.30
2022-07-30T03:21:56.520Z,17.30
2022-07-30T03:23:02.837Z,17.20
2022-07-30T03:24:09.178Z,17.30
2022-07-30T03:25:17.849Z,17.20
2022-07-30T03:26:22.484Z,17.20
2022-07-30T03:27:27.281Z,17.20
2022-07-30T03:28:34.316Z,17.20
2022-07-30T03:29:41.199Z,17.20
2022-07-30T03:30:44.860Z,17.20
2022-07-30T03:31:49.550Z,17.20
2022-07-30T03:32:58.382Z,17.20
2022-07-30T03:34:03.474Z,17.20
2022-07-30T03:35:16.978Z,17.20
2022-07-30T03:36:23.726Z,17.20
2022-07-30T03:37:27.846Z,17.20
2022-07-30T03:38:33.962Z,17.20
2022-07-30T03:39:40.364Z,17.10
2022-07-30T03:40:49.313Z,17.20
2022-07-30T03:41:55.762Z,17.20
2022-07-30T03:43:02.419Z,17.10
2022-07-30T03:44:08.657Z,17.10
2022-07-30T03:45:16.014Z,17.10
2022-07-30T03:46:18.816Z,17.10
2022-07-30T03:47:26.583Z,17.10
2022-07-30T03:48:29.398Z,17.00
2022-07-30T03:49:32.971Z,17.00
2022-07-30T03:50:37.022Z,17.00
2022-07-30T03:51:41.466Z,17.00
2022-07-30T03:52:44.720Z,17.00
2022-07-30T03:53:53.494Z,17.00
2022-07-30T03:55:13.790Z,16.90
2022-07-30T03:56:25.264Z,16.90
2022-07-30T03:57:48.972Z,16.90
2022-07-30T03:58:52.989Z,16.80
2022-07-30T03:59:56.429Z,16.80
2022-07-30T04:01:00.181Z,16.80
2022-07-30T04:02:06.817Z,16.80
2022-07-30T04:03:36.227Z,16.80
2022-07-30T04:04:42.774Z,16.80
2022-07-30T04:05:46.213Z,16.70
2022-07-30T04:06:48.635Z,16.70
2022-07-30T04:07:52.044Z,16.80
2022-07-30T04:08:56.904Z,16.70
2022-07-30T04:10:00.527Z,16.80
2022-07-30T04:11:41.605Z,16.80
2022-07-30T04:12:47.557Z,16.70
2022-07-30T04:13:50.733Z,16.70
2022-07-30T04:15:00.026Z,16.80
2022-07-30T04:16:38.922Z,16.70
2022-07-30T04:17:45.167Z,16.80
2022-07-30T04:18:53.360Z,16.70
2022-07-30T04:20:03.293Z,16.70
2022-07-30T04:21:16.176Z,16.80
2022-07-30T04:22:28.302Z,16.80
2022-07-30T04:23:30.771Z,16.70
2022-07-30T04:24:36.329Z,16.70
2022-07-30T04:25:42.118Z,16.70
2022-07-30T04:26:46.079Z,16.70
2022-07-30T04:28:03.086Z,16.80
2022-07-30T04:29:17.264Z,16.70
2022-07-30T04:30:21.893Z,16.70
2022-07-30T04:31:31.199Z,16.70
2022-07-30T04:32:42.413Z,16.70
2022-07-30T04:34:16.207Z,16.70
2022-07-30T04:35:51.669Z,16.70
2022-07-30T04:36:56.098Z,16.70
2022-07-30T04:37:58.972Z,16.70
2022-07-30T04:39:02.904Z,16.70
2022-07-30T04:40:07.343Z,16.70
2022-07-30T04:41:10.736Z,16.70
2022-07-30T04:42:39.716Z,16.70
2022-07-30T04:43:45.827Z,16.80
2022-07-30T04:44:49.881Z,16.70
2022-07-30T04:46:03.881Z,16.70
2022-07-30T04:47:08.692Z,16.80
2022-07-30T04:48:16.413Z,16.80
2022-07-30T04:49:45.311Z,16.80
2022-07-30T04:50:51.604Z,16.80
2022-07-30T04:51:56.858Z,16.80
2022-07-30T04:52:59.721Z,16.80
2022-07-30T04:54:08.404Z,16.80
2022-07-30T04:55:20.930Z,16.80
2022-07-30T04:56:26.591Z,16.90
2022-07-30T04:57:30.745Z,16.90
2022-07-30T04:58:36.048Z,16.90
2022-07-30T04:59:39.183Z,16.90
2022-07-30T05:00:44.458Z,16.90
2022-07-30T05:01:52.384Z,16.90
2022-07-30T05:02:57.695Z,16.90
2022-07-30T05:04:02.509Z,16.80
2022-07-30T05:05:08.244Z,16.80
2022-07-30T05:06:13.925Z,16.80
2022-07-30T05:07:18.533Z,16.70
2022-07-30T05:08:26.693Z,16.70
2022-07-30T05:09:31.013Z,16.70
2022-07-30T05:10:34.503Z,16.70
2022-07-30T05:11:36.869Z,16.60
2022-07-30T05:12:40.637Z,16.60
2022-07-30T05:13:46.107Z,16.60
2022-07-30T05:14:50.881Z,16.60
2022-07-30T05:15:53.345Z,16.60
2022-07-30T05:17:00.474Z,16.60
2022-07-30T05:18:06.098Z,16.60
2022-07-30T05:19:12.413Z,16.60
2022-07-30T05:20:15.790Z,16.60
2022-07-30T05:21:39.600Z,16.70
2022-07-30T05:22:42.742Z,16.70
2022-07-30T05:23:49.999Z,16.60
2022-07-30T05:25:16.226Z,16.70
2022-07-30T05:26:22.267Z,16.80
2022-07-30T05:27:30.070Z,16.80
2022-07-30T05:28:33.507Z,16.80
2022-07-30T05:29:40.189Z,16.80
2022-07-30T05:30:48.937Z,16.70
2022-07-30T05:31:54.649Z,16.70
2022-07-30T05:33:03.624Z,16.70
2022-07-30T05:34:14.017Z,16.70
2022-07-30T05:35:20.701Z,16.70
2022-07-30T05:36:23.332Z,16.80
2022-07-30T05:37:26.898Z,16.80
2022-07-30T05:38:29.479Z,16.80
2022-07-30T05:40:02.356Z,16.90
2022-07-30T05:41:33.415Z,16.90
2022-07-30T05:42:38.725Z,17.00
2022-07-30T05:43:44.860Z,17.00
2022-07-30T05:44:47.531Z,17.10
2022-07-30T05:45:50.993Z,17.10
2022-07-30T05:46:53.475Z,17.20
2022-07-30T05:47:56.922Z,17.30
2022-07-30T05:48:59.531Z,17.30
2022-07-30T05:50:06.942Z,17.40
2022-07-30T05:51:09.378Z,17.40
2022-07-30T05:52:12.682Z,17.50
2022-07-30T05:53:15.228Z,17.60
2022-07-30T05:54:38.528Z,17.70
2022-07-30T05:56:00.819Z,17.70
2022-07-30T05:57:25.991Z,17.80
2022-07-30T05:58:28.538Z,17.90
2022-07-30T05:59:32.286Z,18.00
2022-07-30T06:00:44.713Z,18.10
2022-07-30T06:01:47.586Z,18.10
2022-07-30T06:02:57.091Z,18.20
2022-07-30T06:04:02.078Z,18.40
2022-07-30T06:05:33.558Z,18.40
2022-07-30T06:06:37.390Z,18.50
2022-07-30T06:07:40.748Z,18.60
2022-07-30T06:08:44.270Z,18.70
2022-07-30T06:09:47.725Z,18.80
2022-07-30T06:10:50.125Z,18.90
2022-07-30T06:11:53.666Z,19.00
2022-07-30T06:13:00.212Z,19.00
2022-07-30T06:14:03.698Z,19.10
2022-07-30T06:15:08.180Z,19.20
2022-07-30T06:16:14.673Z,19.20
2022-07-30T06:17:17.177Z,19.30
2022-07-30T06:18:40.988Z,19.40
2022-07-30T06:19:53.298Z,19.50
2022-07-30T06:21:00.378Z,19.60
2022-07-30T06:22:14.146Z,19.70
2022-07-30T06:23:23.742Z,19.70
2022-07-30T06:24:45.707Z,19.80
2022-07-30T06:25:54.639Z,19.80
2022-07-30T06:26:56.988Z,19.90
2022-07-30T06:28:15.369Z,20.00
2022-07-30T06:29:24.116Z,20.10
2022-07-30T06:30:30.308Z,20.10
2022-07-30T06:31:35.338Z,20.20
2022-07-30T06:32:37.927Z,20.30
2022-07-30T06:33:43.110Z,20.40
2022-07-30T06:34:45.995Z,20.40
2022-07-30T06:35:49.671Z,20.50
2022-07-30T06:36:56.461Z,20.60
2022-07-30T06:38:07.673Z,20.60
2022-07-30T06:39:57.052Z,20.70
2022-07-30T06:41:03.052Z,20.70
2022-07-30T06:42:30.967Z,20.80
2022-07-30T06:43:56.105Z,20.80
2022-07-30T06:45:17.964Z,20.90
2022-07-30T06:46:40.376Z,21.00
2022-07-30T06:47:43.762Z,21.10
2022-07-30T06:48:46.321Z,21.10
2022-07-30T06:49:49.738Z,21.20
2022-07-30T06:50:53.346Z,21.30
2022-07-30T06:51:57.311Z,21.30
2022-07-30T06:53:00.753Z,21.40
2022-07-30T06:54:15.190Z,21.50
2022-07-30T06:55:36.083Z,21.60
2022-07-30T06:56:39.998Z,21.60
2022-07-30T06:57:43.659Z,21.70
2022-07-30T06:59:07.302Z,21.80
2022-07-30T07:00:29.197Z,21.80
2022-07-30T07:01:32.691Z,21.90
2022-07-30T07:02:36.362Z,21.90
2022-07-30T07:03:49.051Z,21.90
2022-07-30T07:04:52.514Z,22.00
2022-07-30T07:05:54.868Z,22.00
2022-07-30T07:07:00.260Z,22.10
2022-07-30T07:08:14.883Z,22.10
2022-07-30T07:09:24.173Z,22.10
2022-07-30T07:10:42.908Z,22.10
2022-07-30T07:12:02.382Z,22.10
2022-07-30T07:13:05.892Z,22.10
2022-07-30T07:14:11.604Z,22.10
2022-07-30T07:15:14.012Z,22.20
2022-07-30T07:16:21.549Z,22.20
2022-07-30T07:17:25.106Z,22.30
2022-07-30T07:18:34.598Z,22.40
2022-07-30T07:20:01.442Z,22.50
2022-07-30T07:21:04.821Z,22.50
2022-07-30T07:22:09.018Z,22.40
2022-07-30T07:23:13.146Z,22.40
2022-07-30T07:24:18.038Z,22.40
2022-07-30T07:25:30.233Z,22.30
2022-07-30T07:26:32.686Z,22.30
2022-07-30T07:27:36.323Z,22.30
2022-07-30T07:28:40.213Z,22.30
2022-07-30T07:30:01.187Z,22.50
2022-07-30T07:31:07.763Z,22.50
2022-07-30T07:32:11.175Z,22.70
2022-07-30T07:33:16.422Z,22.80
2022-07-30T07:34:20.678Z,22.90
2022-07-30T07:35:24.146Z,23.00
2022-07-30T07:36:28.477Z,23.10
2022-07-30T07:37:32.635Z,23.20
2022-07-30T07:38:36.643Z,23.40
2022-07-30T07:39:42.238Z,23.40
2022-07-30T07:40:47.229Z,23.60
2022-07-30T07:41:50.090Z,23.70
2022-07-30T07:42:58.805Z,23.80
2022-07-30T07:44:02.289Z,24.00
2022-07-30T07:45:11.090Z,24.10
2022-07-30T07:46:33.925Z,24.30
2022-07-30T07:47:51.862Z,24.30
2022-07-30T07:49:36.229Z,24.30
2022-07-30T07:50:40.254Z,24.10
2022-07-30T07:51:51.815Z,23.90
2022-07-30T07:52:57.174Z,23.70
2022-07-30T07:54:20.580Z,23.60
2022-07-30T07:55:25.873Z,23.40
2022-07-30T07:56:28.376Z,23.20
2022-07-30T07:57:38.977Z,23.20
2022-07-30T07:58:42.616Z,23.30
2022-07-30T07:59:47.675Z,23.40
2022-07-30T08:01:00.070Z,23.50
2022-07-30T08:02:23.637Z,23.70
2022-07-30T08:03:33.769Z,23.90
2022-07-30T08:04:43.322Z,24.00
2022-07-30T08:06:00.959Z,24.20
2022-07-30T08:07:38.458Z,24.40
2022-07-30T08:09:13.508Z,24.50
2022-07-30T08:10:39.802Z,24.40
2022-07-30T08:11:49.312Z,24.10
2022-07-30T08:13:51.989Z,24.00
2022-07-30T08:14:57.185Z,23.70
2022-07-30T08:16:18.457Z,23.70
2022-07-30T08:17:42.328Z,23.80
2022-07-30T08:18:52.884Z,24.00
2022-07-30T08:20:07.378Z,24.20
2022-07-30T08:21:10.975Z,24.30
2022-07-30T08:22:14.491Z,24.40
2022-07-30T08:23:18.028Z,24.50
2022-07-30T08:24:23.503Z,24.60
2022-07-30T08:25:25.913Z,24.80
2022-07-30T08:26:30.617Z,24.90
2022-07-30T08:27:34.063Z,25.10
2022-07-30T08:28:38.278Z,25.30
2022-07-30T08:29:42.808Z,25.50
2022-07-30T08:30:47.269Z,25.60
2022-07-30T08:31:49.711Z,25.70
2022-07-30T08:32:53.129Z,25.60
2022-07-30T08:33:55.627Z,25.70
2022-07-30T08:34:59.789Z,25.70
2022-07-30T08:36:04.109Z,25.70
2022-07-30T08:37:09.169Z,25.80
2022-07-30T08:38:14.922Z,25.90
2022-07-30T08:39:17.516Z,26.00
2022-07-30T08:40:22.589Z,26.20
2022-07-30T08:41:43.958Z,26.40
2022-07-30T08:42:47.256Z,26.50
2022-07-30T08:43:54.527Z,26.60
2022-07-30T08:44:57.835Z,26.80
2022-07-30T08:46:03.751Z,26.90
2022-07-30T08:47:23.757Z,27.00
2022-07-30T08:50:04.394Z,27.30
2022-07-30T08:51:11.443Z,27.40
2022-07-30T08:52:38.675Z,27.50
2022-07-30T08:53:44.205Z,27.50
2022-07-30T08:54:47.854Z,27.60
2022-07-30T08:55:55.596Z,27.70
2022-07-30T08:57:01.861Z,27.80
2022-07-30T08:58:24.008Z,28.00
2022-07-30T09:00:00.548Z,28.10
2022-07-30T09:00:52.904Z,28.10
2022-07-30T09:01:57.038Z,28.00
2022-07-30T09:03:01.912Z,27.90
2022-07-30T09:05:14.774Z,27.40
2022-07-30T09:06:17.564Z,27.20
2022-07-30T09:07:21.138Z,27.00
2022-07-30T09:08:24.044Z,27.00
2022-07-30T09:09:27.524Z,27.10
2022-07-30T09:10:34.501Z,27.20
2022-07-30T09:11:39.460Z,27.30
2022-07-30T09:12:43.898Z,27.40
2022-07-30T09:13:48.458Z,27.50
2022-07-30T09:15:03.940Z,27.60
2022-07-30T09:16:09.582Z,27.70
2022-07-30T09:17:13.539Z,27.80
2022-07-30T09:18:29.537Z,27.80
2022-07-30T09:19:32.138Z,28.00
2022-07-30T09:20:37.612Z,28.10
2022-07-30T09:21:56.961Z,28.10
2022-07-30T09:23:08.495Z,28.20
2022-07-30T09:24:44.441Z,28.30
2022-07-30T09:26:06.495Z,28.50
2022-07-30T09:27:46.516Z,28.60
2022-07-30T09:29:18.263Z,28.60
2022-07-30T09:30:51.020Z,28.60
2022-07-30T09:32:13.537Z,28.50
2022-07-30T09:33:52.072Z,28.60
2022-07-30T09:35:14.990Z,28.80
2022-07-30T09:36:37.373Z,29.00
2022-07-30T09:38:06.159Z,29.00
2022-07-30T09:39:36.514Z,29.00
2022-07-30T09:41:00.112Z,28.90
2022-07-30T09:42:25.069Z,28.70
2022-07-30T09:43:30.951Z,28.40
2022-07-30T09:44:47.599Z,28.30
2022-07-30T09:45:56.670Z,28.10
2022-07-30T09:47:02.908Z,28.10
2022-07-30T09:48:22.216Z,28.10
2022-07-30T09:49:28.367Z,28.30
2022-07-30T09:50:32.060Z,28.40
2022-07-30T09:51:54.719Z,28.50
2022-07-30T09:53:11.912Z,28.60
2022-07-30T09:54:16.625Z,28.40
2022-07-30T09:55:33.032Z,28.20
2022-07-30T09:56:36.053Z,28.10
2022-07-30T09:57:57.686Z,27.90
2022-07-30T09:59:04.974Z,27.70
2022-07-30T10:00:23.593Z,27.50
2022-07-30T10:02:00.715Z,27.50
2022-07-30T10:03:33.556Z,27.50
2022-07-30T10:05:09.963Z,27.70
2022-07-30T10:06:17.902Z,27.90
2022-07-30T10:07:24.998Z,28.00
2022-07-30T10:08:42.753Z,28.10
2022-07-30T10:09:49.852Z,28.10
2022-07-30T10:10:57.567Z,28.10
2022-07-30T10:12:11.605Z,28.20
2022-07-30T10:13:22.470Z,28.10
2022-07-30T10:14:32.380Z,28.00
2022-07-30T10:15:38.375Z,28.00
2022-07-30T10:16:42.638Z,28.10
2022-07-30T10:17:49.899Z,28.20
2022-07-30T10:19:18.179Z,28.30
2022-07-30T10:20:43.982Z,28.50
2022-07-30T10:22:08.685Z,28.80
2022-07-30T10:23:33.976Z,28.90
2022-07-30T10:24:57.019Z,28.90
2022-07-30T10:26:19.977Z,28.80
2022-07-30T10:27:57.752Z,28.60
2022-07-30T10:29:06.174Z,28.40
2022-07-30T10:30:13.786Z,28.50
2022-07-30T10:31:47.060Z,28.60
2022-07-30T10:32:45.276Z,28.80
2022-07-30T10:33:56.898Z,28.90
2022-07-30T10:35:01.221Z,28.90
2022-07-30T10:36:09.011Z,28.90
2022-07-30T10:37:16.636Z,28.80
2022-07-30T10:38:28.688Z,28.70
2022-07-30T10:39:37.280Z,28.60
2022-07-30T10:40:53.458Z,28.60
2022-07-30T10:42:16.777Z,28.70
2022-07-30T10:44:16.268Z,28.90
2022-07-30T10:45:27.985Z,29.00
2022-07-30T10:46:48.494Z,29.00
2022-07-30T10:48:00.886Z,28.90
2022-07-30T10:49:12.581Z,28.90
2022-07-30T10:50:26.852Z,28.80
2022-07-30T10:51:47.713Z,28.80
2022-07-30T10:52:54.517Z,28.90
2022-07-30T10:54:04.468Z,29.00
2022-07-30T10:55:15.947Z,29.10
2022-07-30T10:56:25.550Z,29.20
2022-07-30T10:57:32.780Z,29.40
2022-07-30T10:59:00.609Z,29.50
2022-07-30T11:00:12.249Z,29.50
2022-07-30T11:01:21.430Z,29.30
2022-07-30T11:02:27.015Z,29.30
2022-07-30T11:03:41.080Z,29.40
2022-07-30T11:04:47.868Z,29.50
2022-07-30T11:05:54.745Z,29.60
2022-07-30T11:07:31.509Z,29.70
2022-07-30T11:08:37.649Z,29.80
2022-07-30T11:09:49.714Z,29.70
2022-07-30T11:12:02.059Z,29.70
2022-07-30T11:13:09.067Z,29.80
2022-07-30T11:14:12.939Z,29.90
2022-07-30T11:15:18.281Z,30.00
2022-07-30T11:16:26.207Z,30.20
2022-07-30T11:18:12.896Z,30.40
2022-07-30T11:19:56.394Z,30.40
2022-07-30T11:20:43.124Z,30.50
2022-07-30T11:22:25.923Z,30.60
2022-07-30T11:23:41.163Z,30.60
2022-07-30T11:24:48.881Z,30.60
2022-07-30T11:25:54.574Z,30.60
2022-07-30T11:26:58.559Z,30.70
2022-07-30T11:28:01.429Z,30.80
2022-07-30T11:29:05.734Z,30.80
2022-07-30T11:30:42.040Z,30.80
2022-07-30T11:32:07.496Z,31.00
2022-07-30T11:33:32.281Z,31.00
2022-07-30T11:34:36.721Z,31.20
2022-07-30T11:35:42.109Z,31.00
2022-07-30T11:37:18.764Z,31.10
2022-07-30T11:38:26.796Z,31.20
2022-07-30T11:40:13.916Z,31.10
2022-07-30T11:41:16.462Z,31.30
2022-07-30T11:42:27.444Z,31.40
2022-07-30T11:43:36.220Z,31.50
2022-07-30T11:44:40.217Z,31.50
2022-07-30T11:45:45.207Z,31.40
2022-07-30T11:46:52.028Z,31.40
2022-07-30T11:48:00.382Z,31.40
2022-07-30T11:49:09.034Z,31.50
2022-07-30T11:50:19.092Z,31.60
2022-07-30T11:51:23.030Z,31.60
2022-07-30T11:52:25.989Z,31.70
2022-07-30T11:53:31.701Z,31.80
2022-07-30T11:54:54.283Z,31.80
2022-07-30T11:56:01.144Z,31.80
2022-07-30T11:57:05.266Z,31.80
2022-07-30T11:58:12.777Z,31.80
2022-07-30T11:59:19.301Z,31.90
2022-07-30T12:00:23.974Z,31.80
2022-07-30T12:01:30.823Z,31.80
2022-07-30T12:02:34.668Z,31.80
2022-07-30T12:03:42.324Z,31.70
2022-07-30T12:04:44.954Z,31.60
2022-07-30T12:05:51.259Z,31.40
2022-07-30T12:06:56.951Z,31.40
2022-07-30T12:07:59.947Z,31.20
2022-07-30T12:09:03.834Z,31.00
2022-07-30T12:10:16.266Z,30.90
2022-07-30T12:11:20.938Z,30.70
2022-07-30T12:12:25.134Z,30.50
2022-07-30T12:13:45.177Z,30.50
2022-07-30T12:14:51.686Z,30.50
2022-07-30T12:15:56.294Z,30.50
2022-07-30T12:17:00.186Z,30.60
2022-07-30T12:18:25.200Z,30.70
2022-07-30T12:19:29.253Z,30.80
2022-07-30T12:20:55.368Z,30.90
2022-07-30T12:22:01.589Z,31.00
2022-07-30T12:23:10.002Z,31.10
2022-07-30T12:24:13.762Z,31.20
2022-07-30T12:25:16.752Z,31.20
2022-07-30T12:26:26.525Z,31.30
2022-07-30T12:27:30.605Z,31.40
2022-07-30T12:28:37.036Z,31.30
2022-07-30T12:29:41.458Z,31.50
2022-07-30T12:30:46.716Z,31.40
2022-07-30T12:31:53.679Z,31.50
2022-07-30T12:32:57.142Z,31.60
2022-07-30T12:34:03.701Z,31.60
2022-07-30T12:35:08.072Z,31.70
2022-07-30T12:36:24.884Z,31.60
2022-07-30T12:37:29.076Z,31.60
2022-07-30T12:38:49.208Z,31.60
2022-07-30T12:40:05.912Z,31.50
2022-07-30T12:41:11.503Z,31.40
2022-07-30T12:42:20.302Z,31.40
2022-07-30T12:43:48.387Z,31.60
2022-07-30T12:44:51.953Z,31.50
2022-07-30T12:46:00.561Z,31.40
2022-07-30T12:47:05.440Z,31.40
2022-07-30T12:48:12.213Z,31.20
2022-07-30T12:49:22.389Z,31.30
2022-07-30T12:50:29.750Z,31.30
2022-07-30T12:51:37.692Z,31.40
2022-07-30T12:52:50.597Z,31.40
2022-07-30T12:53:57.039Z,31.50
2022-07-30T12:55:05.722Z,31.60
2022-07-30T12:56:13.919Z,31.60
2022-07-30T12:57:17.114Z,31.70
2022-07-30T12:58:21.830Z,31.80
2022-07-30T12:59:26.230Z,31.70
2022-07-30T13:00:32.889Z,31.70
2022-07-30T13:01:43.178Z,31.70
2022-07-30T13:02:47.709Z,31.60
2022-07-30T13:03:52.465Z,31.60
2022-07-30T13:05:10.170Z,31.50
2022-07-30T13:06:20.881Z,31.50
2022-07-30T13:07:23.915Z,31.50
2022-07-30T13:08:52.189Z,31.50
2022-07-30T13:10:12.397Z,31.50
2022-07-30T13:11:17.126Z,31.50
2022-07-30T13:12:20.504Z,31.40
2022-07-30T13:13:25.072Z,31.40
2022-07-30T13:14:28.066Z,31.30
2022-07-30T13:15:32.440Z,31.30
2022-07-30T13:16:37.315Z,31.30
2022-07-30T13:17:41.497Z,31.30
2022-07-30T13:18:46.149Z,31.30
2022-07-30T13:19:49.848Z,31.40
2022-07-30T13:20:55.509Z,31.40
2022-07-30T13:21:59.950Z,31.40
2022-07-30T13:23:03.187Z,31.40
2022-07-30T13:24:09.776Z,31.30
2022-07-30T13:25:20.723Z,31.30
2022-07-30T13:26:24.389Z,31.30
2022-07-30T13:27:26.771Z,31.30
2022-07-30T13:28:31.845Z,31.20
2022-07-30T13:29:35.210Z,31.30
2022-07-30T13:30:37.626Z,31.20
2022-07-30T13:31:43.163Z,31.30
2022-07-30T13:32:45.936Z,31.20
2022-07-30T13:33:49.905Z,31.20
2022-07-30T13:34:52.285Z,31.20
2022-07-30T13:36:00.208Z,31.10
2022-07-30T13:37:02.990Z,31.10
2022-07-30T13:38:07.117Z,31.10
2022-07-30T13:39:11.981Z,31.00
2022-07-30T13:40:14.561Z,30.90
2022-07-30T13:41:18.637Z,30.90
2022-07-30T13:42:21.822Z,30.70
2022-07-30T13:43:25.352Z,30.70
2022-07-30T13:44:28.699Z,30.70
2022-07-30T13:45:31.312Z,30.70
2022-07-30T13:46:39.752Z,30.70
2022-07-30T13:47:43.465Z,30.60
2022-07-30T13:48:46.884Z,30.50
2022-07-30T13:49:51.535Z,30.40
2022-07-30T13:50:59.269Z,30.30
2022-07-30T13:52:01.710Z,30.20
2022-07-30T13:53:05.230Z,30.20
2022-07-30T13:54:07.660Z,30.20
2022-07-30T13:55:11.073Z,30.20
2022-07-30T13:56:13.594Z,30.20
2022-07-30T13:57:19.302Z,30.20
2022-07-30T13:58:25.072Z,30.20
2022-07-30T13:59:27.491Z,30.30
2022-07-30T14:00:33.777Z,30.30
2022-07-30T14:01:38.042Z,30.20
2022-07-30T14:02:43.947Z,30.20
2022-07-30T14:03:50.825Z,30.20
2022-07-30T14:04:56.493Z,30.20
2022-07-30T14:06:10.894Z,30.20
2022-07-30T14:07:17.235Z,30.20
2022-07-30T14:08:21.667Z,30.20
2022-07-30T14:09:24.154Z,30.20
2022-07-30T14:10:28.542Z,30.20
2022-07-30T14:11:31.899Z,30.20
2022-07-30T14:12:35.915Z,30.30
2022-07-30T14:13:39.421Z,30.30
2022-07-30T14:14:42.003Z,30.40
2022-07-30T14:15:45.446Z,30.40
2022-07-30T14:16:50.729Z,30.50
2022-07-30T14:17:58.664Z,30.50
2022-07-30T14:19:02.036Z,30.50
2022-07-30T14:20:08.196Z,30.50
2022-07-30T14:21:14.560Z,30.40
2022-07-30T14:22:17.766Z,30.40
2022-07-30T14:23:21.406Z,30.40
2022-07-30T14:24:24.310Z,30.40
2022-07-30T14:25:29.066Z,30.40
2022-07-30T14:26:34.383Z,30.30
2022-07-30T14:27:42.394Z,30.40
2022-07-30T14:28:45.825Z,30.30
2022-07-30T14:29:51.346Z,30.20
2022-07-30T14:30:55.142Z,30.10
2022-07-30T14:31:59.444Z,30.10
2022-07-30T14:33:04.771Z,30.00
2022-07-30T14:34:09.127Z,30.00
2022-07-30T14:35:13.855Z,30.00
2022-07-30T14:36:20.544Z,29.90
2022-07-30T14:37:23.965Z,29.90
2022-07-30T14:38:27.379Z,29.90
2022-07-30T14:39:30.071Z,29.80
2022-07-30T14:40:33.577Z,29.80
2022-07-30T14:41:37.238Z,29.80
2022-07-30T14:42:41.018Z,29.80
2022-07-30T14:43:43.465Z,29.70
2022-07-30T14:44:46.906Z,29.70
2022-07-30T14:45:53.326Z,29.70
2022-07-30T14:46:55.723Z,29.50
2022-07-30T14:47:59.071Z,29.40
2022-07-30T14:49:01.487Z,29.40
2022-07-30T14:50:05.941Z,29.40
2022-07-30T14:51:16.231Z,29.40